Portada
METAR-TAF:

METAR-TAF

Aeropuertos :

Aeropuerto Internacional de Nadi

Nadi, Fiyi

latitud: 17-45S, longitud: 177-27E, altitud: 13 m

Observación

El informe se hizo hace 10 horas y 49 minutos, a las 05:00 UTC
Viento 10 kt del noroeste
Temperatura 30°C
Humedad 59%
Presión 1011 hPa
Visibilidad 10 km o más
Escasas nubes a una altura de 3000 ft

METAR: NFFN 210500Z 31010KT 9999 FEW030 30/21 Q1011 NOSIG

Hora: 03:49 (15:49 UTC)

Pronóstico

El informe se hizo hace 16 horas y 41 minutos, a las 23:08 UTC
Pronóstico válido del 21 a las 00 UTC al 21 a las 24 UTC
Viento 10 kt del oeste-noroeste
Visibilidad 10 km o más
Escasas nubes a una altura de 3000 ft
Evolucionando progresivamente
del 21 a las 06 UTC al 21 a las 08 UTC
Viento 6 kt del este
Evolucionando progresivamente
del 20 a las 21 UTC al 20 a las 23 UTC
Viento 12 kt del oeste

TAF: NFFN 202308Z 2100/2124 29010KT 9999 FEW030 BECMG 2106/2108 08006KT BECMG 2021/2023 28012KT

Observaciones y pronósticos meteorológicos de más de 4000 aeropuertos (mensajes METAR y TAF).

Los puntos amarillos y rojos representan las estaciones disponibles.

Ponga el ratón en el punto deseado para ver el nombre de la estación.

Haga clic para ver las observaciones y los pronósticos meteorológicos.

Para cambiar el mapa : haga clic en los botones verdes con una cruz de color negro para hacer un zoom, en el botón verde con un guión para alejar o en las flechas verdes para mapas adyacentes.


METAR-TAF: